createdAt,value
2022-08-28T00:00:18.462Z,72.20
2022-08-28T00:00:53.779Z,72.31
2022-08-28T00:01:29.098Z,72.11
2022-08-28T00:02:04.099Z,72.20
2022-08-28T00:02:39.457Z,72.20
2022-08-28T00:03:15.504Z,72.20
2022-08-28T00:03:49.921Z,72.34
2022-08-28T00:04:25.368Z,72.20
2022-08-28T00:05:00.612Z,72.71
2022-08-28T00:05:35.562Z,72.00
2022-08-28T00:06:10.993Z,72.11
2022-08-28T00:06:46.008Z,72.11
2022-08-28T00:07:21.222Z,72.00
2022-08-28T00:07:56.424Z,72.31
2022-08-28T00:08:31.642Z,71.91
2022-08-28T00:09:06.853Z,72.51
2022-08-28T00:09:41.959Z,72.00
2022-08-28T00:10:17.280Z,72.61
2022-08-28T00:10:52.583Z,72.31
2022-08-28T00:11:27.795Z,72.00
2022-08-28T00:12:03.300Z,72.00
2022-08-28T00:12:38.891Z,72.81
2022-08-28T00:13:14.206Z,72.00
2022-08-28T00:13:49.415Z,72.41
2022-08-28T00:14:24.733Z,72.00
2022-08-28T00:14:59.929Z,72.91
2022-08-28T00:15:35.459Z,72.00
2022-08-28T00:16:10.656Z,72.20
2022-08-28T00:16:45.906Z,72.00
2022-08-28T00:17:21.219Z,72.00
2022-08-28T00:17:56.952Z,72.00
2022-08-28T00:18:32.078Z,72.20
2022-08-28T00:19:07.486Z,72.20
2022-08-28T00:19:42.785Z,72.00
2022-08-28T00:20:18.091Z,72.00
2022-08-28T00:20:53.228Z,72.61
2022-08-28T00:21:28.241Z,72.00
2022-08-28T00:22:03.447Z,71.91
2022-08-28T00:22:38.249Z,73.01
2022-08-28T00:23:13.561Z,72.31
2022-08-28T00:23:48.743Z,72.11
2022-08-28T00:24:23.959Z,72.00
2022-08-28T00:24:59.088Z,72.31
2022-08-28T00:25:34.316Z,72.31
2022-08-28T00:26:09.715Z,72.00
2022-08-28T00:26:44.929Z,72.71
2022-08-28T00:27:20.118Z,72.71
2022-08-28T00:27:55.511Z,72.71
2022-08-28T00:28:30.339Z,72.71
2022-08-28T00:29:05.656Z,72.34
2022-08-28T00:29:41.156Z,73.11
2022-08-28T00:30:18.329Z,72.24
2022-08-28T00:30:53.535Z,72.91
2022-08-28T00:31:29.000Z,72.41
2022-08-28T00:32:04.100Z,73.01
2022-08-28T00:32:39.211Z,72.91
2022-08-28T00:33:14.343Z,72.91
2022-08-28T00:33:49.535Z,73.01
2022-08-28T00:34:33.060Z,72.44
2022-08-28T00:35:00.123Z,72.95
2022-08-28T00:35:35.761Z,72.95
2022-08-28T00:36:10.678Z,72.81
2022-08-28T00:36:46.085Z,72.75
2022-08-28T00:37:24.572Z,72.85
2022-08-28T00:37:57.196Z,73.05
2022-08-28T00:38:32.426Z,72.85
2022-08-28T00:39:07.735Z,72.85
2022-08-28T00:39:42.832Z,72.95
2022-08-28T00:40:17.883Z,72.85
2022-08-28T00:40:53.414Z,72.91
2022-08-28T00:41:28.736Z,72.95
2022-08-28T00:42:04.129Z,72.61
2022-08-28T00:42:39.410Z,72.85
2022-08-28T00:43:14.343Z,72.75
2022-08-28T00:43:49.431Z,73.01
2022-08-28T00:44:24.934Z,73.05
2022-08-28T00:45:00.229Z,72.95
2022-08-28T00:45:39.508Z,73.05
2022-08-28T00:46:10.600Z,72.64
2022-08-28T00:46:46.081Z,72.85
2022-08-28T00:47:21.691Z,72.95
2022-08-28T00:47:56.999Z,72.64
2022-08-28T00:48:32.513Z,72.34
2022-08-28T00:49:07.935Z,72.85
2022-08-28T00:49:43.246Z,72.75
2022-08-28T00:50:18.665Z,72.85
2022-08-28T00:50:53.875Z,72.54
2022-08-28T00:51:29.203Z,72.44
2022-08-28T00:52:04.519Z,72.75
2022-08-28T00:52:40.140Z,72.95
2022-08-28T00:53:15.346Z,72.85
2022-08-28T00:53:50.435Z,72.95
2022-08-28T00:54:25.656Z,72.44
2022-08-28T00:55:01.348Z,72.75
2022-08-28T00:55:36.673Z,72.85
2022-08-28T00:56:13.125Z,72.85
2022-08-28T00:56:47.088Z,72.95
2022-08-28T00:57:22.194Z,72.44
2022-08-28T00:57:57.198Z,72.95
2022-08-28T00:58:32.425Z,72.64
2022-08-28T00:59:07.683Z,72.95
2022-08-28T00:59:42.779Z,72.95
2022-08-28T01:00:18.016Z,72.24
2022-08-28T01:00:53.433Z,72.54
2022-08-28T01:01:28.589Z,72.75
2022-08-28T01:02:03.841Z,72.64
2022-08-28T01:02:39.034Z,73.55
2022-08-28T01:03:14.277Z,73.58
2022-08-28T01:03:49.309Z,72.75
2022-08-28T01:04:24.624Z,73.35
2022-08-28T01:04:59.970Z,73.55
2022-08-28T01:05:35.599Z,72.95
2022-08-28T01:06:11.206Z,73.55
2022-08-28T01:06:46.440Z,72.75
2022-08-28T01:07:21.589Z,72.95
2022-08-28T01:07:56.882Z,73.05
2022-08-28T01:08:31.988Z,72.95
2022-08-28T01:09:07.127Z,73.18
2022-08-28T01:09:42.345Z,73.15
2022-08-28T01:10:17.662Z,73.25
2022-08-28T01:10:52.889Z,73.28
2022-08-28T01:11:28.203Z,72.95
2022-08-28T01:12:03.716Z,73.18
2022-08-28T01:12:39.030Z,72.48
2022-08-28T01:13:14.259Z,73.38
2022-08-28T01:13:49.385Z,73.49
2022-08-28T01:14:24.802Z,73.55
2022-08-28T01:15:00.120Z,72.88
2022-08-28T01:15:35.598Z,72.68
2022-08-28T01:16:10.718Z,73.35
2022-08-28T01:16:45.893Z,73.18
2022-08-28T01:17:21.211Z,73.18
2022-08-28T01:17:56.508Z,72.78
2022-08-28T01:18:31.618Z,73.49
2022-08-28T01:19:06.734Z,73.28
2022-08-28T01:19:42.034Z,73.08
2022-08-28T01:20:17.155Z,72.98
2022-08-28T01:20:52.375Z,73.28
2022-08-28T01:21:27.682Z,73.28
2022-08-28T01:22:02.783Z,73.08
2022-08-28T01:22:38.038Z,73.28
2022-08-28T01:23:13.350Z,73.38
2022-08-28T01:23:48.461Z,73.38
2022-08-28T01:24:23.909Z,73.28
2022-08-28T01:24:58.945Z,73.58
2022-08-28T01:25:34.170Z,73.58
2022-08-28T01:26:10.973Z,73.69
2022-08-28T01:26:44.612Z,73.28
2022-08-28T01:27:19.737Z,73.08
2022-08-28T01:27:55.025Z,73.69
2022-08-28T01:28:30.642Z,73.38
2022-08-28T01:29:05.864Z,73.89
2022-08-28T01:29:41.205Z,73.99
2022-08-28T01:30:16.410Z,73.58
2022-08-28T01:30:51.852Z,73.08
2022-08-28T01:31:27.131Z,73.79
2022-08-28T01:32:02.364Z,74.29
2022-08-28T01:32:37.385Z,74.80
2022-08-28T01:33:12.603Z,74.19
2022-08-28T01:33:47.911Z,73.79
2022-08-28T01:34:23.227Z,74.09
2022-08-28T01:34:58.432Z,74.19
2022-08-28T01:35:33.960Z,74.09
2022-08-28T01:36:09.177Z,74.19
2022-08-28T01:36:44.494Z,74.69
2022-08-28T01:37:19.804Z,74.80
2022-08-28T01:37:55.007Z,73.99
2022-08-28T01:38:30.522Z,74.19
2022-08-28T01:39:05.741Z,74.69
2022-08-28T01:39:40.636Z,74.09
2022-08-28T01:40:16.023Z,74.02
2022-08-28T01:40:51.092Z,74.63
2022-08-28T01:41:26.508Z,74.53
2022-08-28T01:42:01.703Z,74.84
2022-08-28T01:42:36.835Z,74.53
2022-08-28T01:43:12.244Z,74.84
2022-08-28T01:43:47.556Z,74.84
2022-08-28T01:44:22.679Z,74.02
2022-08-28T01:44:57.779Z,74.43
2022-08-28T01:45:33.122Z,74.53
2022-08-28T01:46:08.394Z,74.53
2022-08-28T01:46:43.607Z,74.13
2022-08-28T01:47:19.006Z,74.43
2022-08-28T01:47:54.094Z,74.53
2022-08-28T01:48:29.339Z,74.13
2022-08-28T01:49:04.840Z,75.04
2022-08-28T01:49:40.354Z,74.84
2022-08-28T01:50:15.358Z,74.33
2022-08-28T01:50:50.673Z,74.22
2022-08-28T01:51:25.786Z,74.73
2022-08-28T01:52:01.302Z,74.53
2022-08-28T01:52:36.808Z,75.04
2022-08-28T01:53:12.477Z,74.73
2022-08-28T01:53:47.233Z,74.63
2022-08-28T01:54:22.355Z,74.43
2022-08-28T01:54:57.645Z,74.33
2022-08-28T01:55:32.990Z,74.33
2022-08-28T01:56:07.997Z,74.93
2022-08-28T01:56:43.110Z,74.63
2022-08-28T01:57:18.233Z,74.73
2022-08-28T01:57:53.557Z,74.73
2022-08-28T01:58:28.893Z,74.73
2022-08-28T01:59:04.082Z,74.93
2022-08-28T01:59:39.172Z,74.53
2022-08-28T02:00:14.486Z,74.63
2022-08-28T02:00:50.113Z,74.43
2022-08-28T02:01:25.597Z,74.43
2022-08-28T02:02:00.584Z,74.43
2022-08-28T02:02:35.533Z,74.63
2022-08-28T02:03:10.841Z,74.37
2022-08-28T02:03:46.500Z,74.73
2022-08-28T02:04:21.635Z,74.93
2022-08-28T02:04:56.872Z,74.43
2022-08-28T02:05:31.895Z,74.33
2022-08-28T02:06:07.100Z,74.63
2022-08-28T02:06:42.223Z,74.43
2022-08-28T02:07:17.518Z,74.63
2022-08-28T02:07:52.862Z,74.73
2022-08-28T02:08:28.300Z,74.87
2022-08-28T02:09:03.207Z,74.97
2022-08-28T02:09:38.470Z,74.87
2022-08-28T02:10:13.966Z,75.07
2022-08-28T02:10:49.602Z,75.17
2022-08-28T02:11:24.714Z,74.97
2022-08-28T02:11:59.797Z,74.87
2022-08-28T02:12:34.937Z,75.27
2022-08-28T02:13:10.346Z,75.37
2022-08-28T02:13:45.661Z,74.97
2022-08-28T02:14:20.591Z,74.77
2022-08-28T02:14:55.785Z,74.87
2022-08-28T02:15:31.480Z,74.87
2022-08-28T02:16:06.919Z,75.07
2022-08-28T02:16:42.259Z,74.77
2022-08-28T02:17:17.475Z,74.87
2022-08-28T02:17:52.805Z,75.07
2022-08-28T02:18:28.145Z,75.37
2022-08-28T02:19:03.478Z,75.17
2022-08-28T02:19:38.579Z,75.27
2022-08-28T02:20:14.276Z,75.17
2022-08-28T02:20:49.534Z,75.37
2022-08-28T02:21:24.756Z,75.48
2022-08-28T02:21:59.965Z,75.71
2022-08-28T02:22:35.282Z,75.68
2022-08-28T02:23:10.680Z,75.21
2022-08-28T02:23:45.997Z,75.21
2022-08-28T02:24:21.714Z,75.48
2022-08-28T02:24:57.029Z,75.41
2022-08-28T02:25:32.558Z,75.27
2022-08-28T02:26:07.859Z,75.37
2022-08-28T02:26:42.983Z,75.37
2022-08-28T02:27:18.523Z,75.48
2022-08-28T02:27:53.745Z,75.27
2022-08-28T02:28:29.070Z,75.21
2022-08-28T02:29:04.271Z,75.57
2022-08-28T02:29:39.665Z,75.48
2022-08-28T02:30:14.784Z,75.71
2022-08-28T02:30:50.019Z,75.37
2022-08-28T02:31:25.505Z,75.57
2022-08-28T02:32:00.625Z,75.51
2022-08-28T02:32:35.929Z,75.41
2022-08-28T02:33:11.150Z,75.48
2022-08-28T02:33:46.557Z,75.37
2022-08-28T02:34:21.610Z,75.31
2022-08-28T02:34:56.610Z,75.92
2022-08-28T02:35:31.753Z,75.41
2022-08-28T02:36:07.152Z,75.61
2022-08-28T02:36:42.359Z,75.68
2022-08-28T02:37:17.885Z,75.41
2022-08-28T02:37:54.544Z,75.71
2022-08-28T02:38:28.774Z,75.48
2022-08-28T02:39:04.169Z,75.51
2022-08-28T02:39:39.288Z,75.81
2022-08-28T02:40:14.488Z,76.22
2022-08-28T02:40:49.691Z,75.61
2022-08-28T02:41:25.020Z,76.32
2022-08-28T02:42:00.634Z,75.41
2022-08-28T02:42:36.033Z,75.51
2022-08-28T02:43:11.336Z,76.02
2022-08-28T02:43:46.853Z,76.12
2022-08-28T02:44:22.068Z,75.92
2022-08-28T02:44:57.265Z,75.81
2022-08-28T02:45:32.391Z,75.41
2022-08-28T02:46:07.764Z,75.71
2022-08-28T02:46:42.716Z,75.81
2022-08-28T02:47:18.032Z,76.02
2022-08-28T02:47:53.335Z,75.92
2022-08-28T02:48:29.161Z,75.71
2022-08-28T02:49:04.572Z,75.71
2022-08-28T02:49:39.676Z,75.51
2022-08-28T02:50:14.897Z,75.61
2022-08-28T02:50:50.122Z,75.51
2022-08-28T02:51:25.239Z,76.02
2022-08-28T02:52:00.454Z,76.42
2022-08-28T02:52:36.076Z,75.92
2022-08-28T02:53:11.495Z,75.92
2022-08-28T02:53:46.891Z,75.81
2022-08-28T02:54:21.987Z,76.12
2022-08-28T02:54:56.984Z,75.81
2022-08-28T02:55:34.222Z,75.71
2022-08-28T02:56:07.634Z,76.12
2022-08-28T02:56:42.837Z,76.22
2022-08-28T02:57:18.255Z,75.81
2022-08-28T02:57:53.460Z,76.42
2022-08-28T02:58:28.471Z,76.15
2022-08-28T02:59:03.897Z,76.12
2022-08-28T02:59:39.309Z,76.97
2022-08-28T03:00:14.707Z,76.15
2022-08-28T03:00:49.922Z,76.56
2022-08-28T03:01:25.207Z,76.86
2022-08-28T03:02:00.422Z,76.56
2022-08-28T03:02:36.025Z,76.35
2022-08-28T03:03:11.144Z,76.35
2022-08-28T03:03:46.547Z,75.65
2022-08-28T03:04:22.004Z,76.05
2022-08-28T03:04:57.391Z,75.85
2022-08-28T03:05:32.620Z,76.15
2022-08-28T03:06:07.637Z,76.05
2022-08-28T03:06:42.916Z,76.05
2022-08-28T03:07:18.130Z,75.75
2022-08-28T03:07:53.431Z,76.46
2022-08-28T03:08:28.549Z,75.75
2022-08-28T03:09:03.798Z,76.05
2022-08-28T03:09:39.013Z,76.05
2022-08-28T03:10:14.101Z,76.15
2022-08-28T03:10:49.613Z,76.15
2022-08-28T03:11:24.951Z,76.39
2022-08-28T03:12:00.294Z,76.35
2022-08-28T03:12:35.306Z,76.15
2022-08-28T03:13:10.514Z,76.05
2022-08-28T03:13:45.506Z,76.35
2022-08-28T03:14:21.232Z,76.56
2022-08-28T03:14:56.432Z,76.09
2022-08-28T03:15:31.885Z,76.15
2022-08-28T03:16:07.024Z,76.29
2022-08-28T03:16:42.201Z,76.29
2022-08-28T03:17:17.254Z,76.09
2022-08-28T03:17:52.546Z,76.15
2022-08-28T03:18:27.965Z,76.09
2022-08-28T03:19:03.479Z,76.19
2022-08-28T03:19:38.714Z,76.50
2022-08-28T03:20:13.881Z,76.50
2022-08-28T03:20:49.310Z,76.09
2022-08-28T03:21:24.417Z,76.19
2022-08-28T03:21:59.629Z,76.76
2022-08-28T03:22:34.748Z,76.90
2022-08-28T03:23:10.372Z,77.06
2022-08-28T03:23:45.773Z,76.86
2022-08-28T03:24:21.169Z,77.00
2022-08-28T03:24:56.366Z,77.10
2022-08-28T03:25:31.500Z,76.66
2022-08-28T03:26:06.696Z,76.70
2022-08-28T03:26:41.926Z,76.39
2022-08-28T03:27:20.104Z,76.70
2022-08-28T03:27:55.322Z,76.29
2022-08-28T03:28:31.020Z,76.90
2022-08-28T03:29:06.329Z,77.00
2022-08-28T03:29:41.353Z,76.70
2022-08-28T03:30:16.766Z,76.59
2022-08-28T03:30:52.209Z,76.90
2022-08-28T03:31:27.405Z,76.79
2022-08-28T03:32:02.514Z,76.79
2022-08-28T03:32:37.734Z,76.59
2022-08-28T03:33:12.917Z,76.90
2022-08-28T03:33:48.421Z,77.00
2022-08-28T03:34:23.544Z,77.00
2022-08-28T03:34:58.554Z,76.79
2022-08-28T03:35:33.815Z,76.90
2022-08-28T03:36:09.034Z,77.20
2022-08-28T03:36:44.038Z,76.79
2022-08-28T03:37:19.353Z,76.63
2022-08-28T03:37:54.653Z,77.30
2022-08-28T03:38:30.083Z,77.50
2022-08-28T03:39:05.207Z,77.40
2022-08-28T03:39:40.448Z,77.00
2022-08-28T03:40:15.704Z,77.20
2022-08-28T03:40:51.002Z,77.00
2022-08-28T03:41:26.335Z,77.00
2022-08-28T03:42:01.544Z,76.93
2022-08-28T03:42:36.760Z,77.03
2022-08-28T03:43:11.974Z,77.34
2022-08-28T03:43:47.197Z,77.03
2022-08-28T03:44:22.511Z,77.50
2022-08-28T03:44:57.816Z,76.93
2022-08-28T03:45:33.419Z,76.73
2022-08-28T03:46:08.721Z,76.79
2022-08-28T03:46:44.144Z,77.20
2022-08-28T03:47:19.254Z,76.73
2022-08-28T03:47:54.657Z,76.79
2022-08-28T03:48:29.892Z,77.14
2022-08-28T03:49:05.091Z,76.79
2022-08-28T03:49:40.219Z,77.00
2022-08-28T03:50:15.368Z,76.59
2022-08-28T03:50:50.600Z,77.20
2022-08-28T03:51:29.803Z,77.20
2022-08-28T03:52:01.207Z,76.79
2022-08-28T03:52:36.618Z,77.14
2022-08-28T03:53:11.832Z,76.39
2022-08-28T03:53:47.163Z,76.79
2022-08-28T03:54:22.166Z,77.24
2022-08-28T03:54:57.273Z,76.79
2022-08-28T03:55:32.315Z,76.90
2022-08-28T03:56:07.423Z,76.70
2022-08-28T03:56:42.538Z,76.63
2022-08-28T03:57:17.756Z,77.14
2022-08-28T03:57:52.949Z,76.83
2022-08-28T03:58:28.080Z,76.79
2022-08-28T03:59:03.301Z,76.63
2022-08-28T03:59:38.765Z,76.63
2022-08-28T04:00:13.863Z,76.93
2022-08-28T04:00:49.092Z,76.93
2022-08-28T04:01:24.506Z,77.44
2022-08-28T04:01:59.626Z,76.83
2022-08-28T04:02:35.174Z,76.79
2022-08-28T04:03:10.444Z,76.79
2022-08-28T04:03:45.595Z,76.83
2022-08-28T04:04:20.750Z,76.83
2022-08-28T04:04:56.071Z,76.93
2022-08-28T04:05:31.309Z,76.79
2022-08-28T04:06:06.433Z,76.83
2022-08-28T04:06:41.646Z,76.83
2022-08-28T04:07:16.742Z,76.63
2022-08-28T04:07:51.853Z,76.73
2022-08-28T04:08:27.307Z,76.73
2022-08-28T04:09:02.407Z,76.83
2022-08-28T04:09:37.623Z,76.63
2022-08-28T04:10:12.825Z,76.73
2022-08-28T04:10:48.202Z,76.93
2022-08-28T04:11:23.808Z,76.83
2022-08-28T04:11:59.311Z,76.93
2022-08-28T04:12:35.217Z,76.73
2022-08-28T04:13:09.635Z,77.24
2022-08-28T04:13:51.983Z,76.93
2022-08-28T04:14:27.300Z,76.63
2022-08-28T04:15:02.495Z,77.03
2022-08-28T04:15:37.988Z,77.14
2022-08-28T04:16:13.141Z,76.93
2022-08-28T04:16:48.014Z,77.24
2022-08-28T04:17:23.299Z,77.14
2022-08-28T04:17:58.491Z,77.24
2022-08-28T04:18:33.687Z,77.03
2022-08-28T04:19:08.977Z,77.34
2022-08-28T04:19:44.300Z,76.93
2022-08-28T04:20:19.607Z,77.64
2022-08-28T04:20:54.836Z,77.28
2022-08-28T04:21:30.173Z,77.07
2022-08-28T04:22:05.475Z,76.97
2022-08-28T04:22:40.468Z,77.44
2022-08-28T04:23:15.653Z,77.37
2022-08-28T04:23:50.785Z,77.37
2022-08-28T04:24:25.806Z,77.58
2022-08-28T04:25:01.086Z,77.68
2022-08-28T04:25:36.595Z,77.68
2022-08-28T04:26:11.882Z,78.08
2022-08-28T04:26:47.300Z,78.08
2022-08-28T04:27:22.776Z,78.08
2022-08-28T04:27:58.088Z,77.68
2022-08-28T04:28:33.516Z,77.78
2022-08-28T04:29:08.816Z,78.19
2022-08-28T04:29:44.170Z,78.08
2022-08-28T04:30:19.514Z,78.22
2022-08-28T04:30:55.115Z,77.98
2022-08-28T04:31:32.113Z,77.82
2022-08-28T04:32:05.604Z,77.68
2022-08-28T04:32:40.882Z,77.78
2022-08-28T04:33:16.369Z,78.12
2022-08-28T04:33:51.687Z,78.42
2022-08-28T04:34:27.097Z,77.72
2022-08-28T04:35:02.191Z,77.92
2022-08-28T04:35:37.405Z,78.63
2022-08-28T04:36:12.892Z,78.42
2022-08-28T04:36:48.108Z,78.22
2022-08-28T04:37:23.278Z,78.42
2022-08-28T04:37:59.084Z,79.34
2022-08-28T04:38:33.609Z,78.73
2022-08-28T04:39:08.852Z,79.13
2022-08-28T04:39:43.896Z,78.83
2022-08-28T04:40:19.227Z,78.42
2022-08-28T04:40:54.807Z,78.93
2022-08-28T04:41:30.012Z,78.22
2022-08-28T04:42:05.220Z,78.22
2022-08-28T04:42:40.314Z,78.33
2022-08-28T04:43:15.517Z,79.03
2022-08-28T04:43:50.825Z,78.93
2022-08-28T04:44:26.238Z,77.82
2022-08-28T04:45:01.446Z,77.92
2022-08-28T04:45:36.829Z,78.33
2022-08-28T04:46:12.012Z,78.22
2022-08-28T04:46:48.314Z,78.02
2022-08-28T04:47:22.179Z,78.73
2022-08-28T04:47:57.286Z,78.93
2022-08-28T04:48:32.774Z,79.03
2022-08-28T04:49:07.989Z,78.63
2022-08-28T04:49:43.397Z,78.33
2022-08-28T04:50:18.608Z,78.83
2022-08-28T04:50:54.035Z,78.12
2022-08-28T04:51:29.428Z,79.03
2022-08-28T04:52:04.625Z,78.63
2022-08-28T04:52:39.745Z,78.93
2022-08-28T04:53:14.821Z,78.53
2022-08-28T04:53:50.113Z,78.83
2022-08-28T04:54:25.424Z,78.63
2022-08-28T04:55:00.842Z,78.56
2022-08-28T04:55:52.267Z,79.13
2022-08-28T04:56:11.473Z,78.63
2022-08-28T04:56:46.883Z,78.83
2022-08-28T04:57:21.983Z,79.44
2022-08-28T04:57:57.586Z,79.03
2022-08-28T04:58:32.776Z,79.03
2022-08-28T04:59:07.977Z,78.73
2022-08-28T04:59:43.299Z,78.83
2022-08-28T05:00:19.102Z,78.66
2022-08-28T05:00:54.401Z,78.93
2022-08-28T05:01:29.955Z,79.24
2022-08-28T05:02:05.052Z,79.34
2022-08-28T05:02:40.288Z,79.74
2022-08-28T05:03:15.525Z,79.94
2022-08-28T05:03:51.032Z,79.44
2022-08-28T05:04:26.341Z,79.58
2022-08-28T05:05:01.854Z,79.78
2022-08-28T05:05:36.978Z,79.44
2022-08-28T05:06:12.071Z,78.63
2022-08-28T05:06:47.275Z,79.34
2022-08-28T05:07:22.372Z,79.44
2022-08-28T05:07:57.469Z,79.34
2022-08-28T05:08:32.471Z,79.44
2022-08-28T05:09:07.883Z,78.53
2022-08-28T05:09:43.243Z,79.03
2022-08-28T05:10:18.143Z,78.53
2022-08-28T05:10:53.194Z,79.44
2022-08-28T05:11:34.105Z,80.05
2022-08-28T05:12:03.928Z,79.54
2022-08-28T05:12:38.932Z,79.85
2022-08-28T05:13:14.115Z,79.34
2022-08-28T05:13:49.230Z,79.64
2022-08-28T05:14:24.626Z,79.58
2022-08-28T05:14:59.929Z,79.85
2022-08-28T05:15:35.236Z,78.63
2022-08-28T05:16:10.463Z,79.54
2022-08-28T05:16:45.983Z,79.27
2022-08-28T05:17:20.996Z,79.54
2022-08-28T05:17:56.226Z,79.85
2022-08-28T05:18:31.432Z,80.25
2022-08-28T05:19:06.731Z,80.25
2022-08-28T05:19:41.916Z,79.54
2022-08-28T05:20:17.194Z,79.03
2022-08-28T05:20:52.399Z,79.27
2022-08-28T05:21:27.677Z,80.19
2022-08-28T05:22:03.194Z,79.98
2022-08-28T05:22:38.107Z,79.58
2022-08-28T05:23:13.107Z,78.93
2022-08-28T05:23:48.304Z,79.44
2022-08-28T05:24:23.585Z,78.83
2022-08-28T05:24:58.806Z,79.44
2022-08-28T05:25:34.538Z,78.33
2022-08-28T05:26:09.828Z,79.44
2022-08-28T05:26:48.299Z,79.03
2022-08-28T05:27:20.616Z,78.42
2022-08-28T05:27:55.933Z,79.17
2022-08-28T05:28:31.261Z,79.34
2022-08-28T05:29:06.169Z,79.24
2022-08-28T05:29:41.389Z,79.24
2022-08-28T05:30:16.855Z,79.24
2022-08-28T05:30:52.169Z,79.03
2022-08-28T05:31:27.181Z,79.34
2022-08-28T05:32:02.384Z,78.53
2022-08-28T05:32:37.817Z,79.24
2022-08-28T05:33:13.000Z,78.53
2022-08-28T05:33:48.214Z,79.24
2022-08-28T05:34:23.514Z,78.83
2022-08-28T05:34:58.927Z,78.83
2022-08-28T05:35:34.249Z,79.13
2022-08-28T05:36:09.361Z,78.93
2022-08-28T05:36:44.597Z,78.33
2022-08-28T05:37:19.813Z,79.24
2022-08-28T05:37:54.802Z,79.54
2022-08-28T05:38:30.203Z,79.54
2022-08-28T05:39:05.387Z,79.74
2022-08-28T05:39:40.477Z,79.85
2022-08-28T05:40:15.726Z,79.34
2022-08-28T05:40:51.356Z,78.63
2022-08-28T05:41:26.873Z,79.85
2022-08-28T05:42:02.258Z,78.39
2022-08-28T05:42:38.968Z,79.24
2022-08-28T05:43:12.673Z,78.69
2022-08-28T05:43:48.068Z,79.30
2022-08-28T05:44:23.365Z,79.00
2022-08-28T05:44:58.358Z,79.10
2022-08-28T05:45:33.712Z,78.49
2022-08-28T05:46:08.947Z,79.20
2022-08-28T05:46:44.191Z,78.39
2022-08-28T05:47:21.649Z,78.69
2022-08-28T05:47:55.167Z,78.79
2022-08-28T05:48:30.481Z,79.00
2022-08-28T05:49:09.665Z,78.59
2022-08-28T05:49:40.561Z,78.28
2022-08-28T05:50:15.762Z,79.50
2022-08-28T05:50:50.769Z,78.59
2022-08-28T05:51:26.432Z,79.30
2022-08-28T05:52:01.810Z,78.59
2022-08-28T05:52:37.044Z,79.16
2022-08-28T05:53:12.311Z,79.20
2022-08-28T05:53:47.520Z,79.20
2022-08-28T05:54:22.628Z,78.55
2022-08-28T05:54:57.939Z,78.75
2022-08-28T05:55:33.164Z,77.95
2022-08-28T05:56:08.250Z,78.19
2022-08-28T05:56:44.172Z,78.59
2022-08-28T05:57:19.496Z,77.84
2022-08-28T05:57:54.689Z,77.75
2022-08-28T05:58:29.781Z,77.64
2022-08-28T05:59:04.957Z,78.05
2022-08-28T05:59:40.263Z,77.84
2022-08-28T06:00:15.571Z,77.44
2022-08-28T06:00:51.017Z,77.75
2022-08-28T06:01:26.358Z,77.91
2022-08-28T06:02:04.323Z,77.91
2022-08-28T06:02:36.901Z,77.71
2022-08-28T06:03:12.071Z,77.91
2022-08-28T06:03:47.326Z,77.84
2022-08-28T06:04:22.496Z,77.91
2022-08-28T06:04:57.963Z,77.71
2022-08-28T06:05:33.078Z,78.38
2022-08-28T06:06:08.577Z,78.01
2022-08-28T06:06:44.179Z,78.01
2022-08-28T06:07:19.605Z,77.87
2022-08-28T06:07:54.791Z,78.38
2022-08-28T06:08:30.100Z,77.57
2022-08-28T06:09:05.282Z,77.87
2022-08-28T06:09:40.394Z,78.17
2022-08-28T06:10:15.984Z,78.08
2022-08-28T06:10:51.095Z,77.87
2022-08-28T06:11:26.391Z,77.43
2022-08-28T06:12:01.959Z,77.84
2022-08-28T06:12:36.990Z,77.64
2022-08-28T06:13:12.090Z,77.33
2022-08-28T06:13:47.177Z,77.64
2022-08-28T06:14:22.180Z,77.33
2022-08-28T06:14:57.366Z,77.03
2022-08-28T06:15:32.400Z,76.99
2022-08-28T06:16:07.759Z,77.90
2022-08-28T06:16:42.912Z,78.10
2022-08-28T06:17:20.026Z,76.99
2022-08-28T06:17:53.404Z,76.69
2022-08-28T06:18:28.810Z,76.79
2022-08-28T06:19:04.101Z,76.48
2022-08-28T06:19:41.525Z,76.59
2022-08-28T06:20:14.657Z,76.39
2022-08-28T06:20:50.186Z,76.08
2022-08-28T06:21:24.975Z,76.35
2022-08-28T06:22:00.251Z,75.84
2022-08-28T06:22:35.365Z,75.84
2022-08-28T06:23:10.666Z,76.25
2022-08-28T06:23:45.959Z,76.04
2022-08-28T06:24:21.061Z,75.04
2022-08-28T06:24:56.340Z,75.60
2022-08-28T06:25:31.963Z,75.71
2022-08-28T06:26:07.075Z,75.40
2022-08-28T06:26:42.164Z,75.40
2022-08-28T06:27:17.680Z,74.90
2022-08-28T06:27:52.888Z,74.90
2022-08-28T06:28:28.389Z,74.90
2022-08-28T06:29:03.483Z,74.80
2022-08-28T06:29:38.780Z,74.66
2022-08-28T06:30:14.093Z,74.76
2022-08-28T06:31:17.772Z,74.66
2022-08-28T06:31:26.522Z,74.46
2022-08-28T06:31:59.865Z,74.43
2022-08-28T06:32:35.126Z,74.12
2022-08-28T06:33:10.334Z,74.56
2022-08-28T06:33:45.527Z,74.22
2022-08-28T06:34:21.032Z,74.22
2022-08-28T06:34:56.429Z,74.43
2022-08-28T06:35:31.878Z,74.63
2022-08-28T06:36:06.983Z,74.22
2022-08-28T06:36:42.080Z,73.68
2022-08-28T06:37:17.300Z,73.48
2022-08-28T06:37:52.298Z,73.28
2022-08-28T06:38:27.505Z,73.38
2022-08-28T06:39:03.112Z,73.18
2022-08-28T06:39:38.705Z,72.94
2022-08-28T06:40:14.078Z,72.54
2022-08-28T06:40:49.321Z,72.85
2022-08-28T06:41:24.437Z,71.94
2022-08-28T06:41:59.540Z,71.53
2022-08-28T06:42:34.959Z,71.94
2022-08-28T06:43:10.459Z,72.91
2022-08-28T06:43:45.447Z,72.11
2022-08-28T06:44:20.864Z,70.70
2022-08-28T06:44:56.140Z,70.70
2022-08-28T06:45:31.285Z,71.00
2022-08-28T06:46:06.989Z,71.50
2022-08-28T06:46:41.860Z,71.50
2022-08-28T06:47:16.952Z,70.59
2022-08-28T06:47:52.247Z,70.39
2022-08-28T06:48:27.490Z,71.20
2022-08-28T06:49:02.561Z,70.59
2022-08-28T06:49:37.746Z,70.66
2022-08-28T06:50:13.046Z,70.50
2022-08-28T06:50:48.485Z,70.59
2022-08-28T06:51:24.987Z,70.46
2022-08-28T06:51:58.594Z,70.79
2022-08-28T06:52:33.802Z,70.46
2022-08-28T06:53:08.686Z,70.46
2022-08-28T06:53:44.081Z,70.26
2022-08-28T06:54:22.658Z,70.36
2022-08-28T06:54:55.911Z,70.46
2022-08-28T06:55:29.804Z,70.50
2022-08-28T06:56:04.815Z,69.96
2022-08-28T06:56:39.817Z,70.26
2022-08-28T06:57:14.923Z,69.96
2022-08-28T06:57:50.108Z,69.92
2022-08-28T06:58:25.206Z,70.03
2022-08-28T06:59:00.618Z,68.78
2022-08-28T06:59:35.932Z,68.98
2022-08-28T07:00:10.933Z,68.25
2022-08-28T07:00:46.147Z,68.12
2022-08-28T07:01:21.497Z,68.41
2022-08-28T07:01:56.758Z,68.08
2022-08-28T07:02:32.157Z,67.28
2022-08-28T07:03:07.527Z,66.38
2022-08-28T07:03:44.225Z,66.17
2022-08-28T07:04:18.147Z,66.44
2022-08-28T07:04:53.355Z,66.85
2022-08-28T07:05:28.581Z,66.14
2022-08-28T07:06:03.910Z,66.01
2022-08-28T07:06:39.484Z,66.01
2022-08-28T07:07:31.324Z,65.68
2022-08-28T07:07:49.901Z,65.58
2022-08-28T07:08:25.309Z,65.28
2022-08-28T07:09:00.500Z,65.78
2022-08-28T07:09:35.723Z,64.75
2022-08-28T07:10:10.836Z,64.95
2022-08-28T07:10:46.140Z,64.54
2022-08-28T07:11:21.761Z,64.51
2022-08-28T07:11:56.950Z,63.61
2022-08-28T07:12:32.153Z,63.71
2022-08-28T07:13:07.456Z,63.31
2022-08-28T07:13:42.477Z,63.68
2022-08-28T07:14:17.595Z,63.18
2022-08-28T07:14:52.779Z,62.58
2022-08-28T07:15:27.940Z,63.28
2022-08-28T07:16:03.265Z,62.58
2022-08-28T07:16:38.397Z,62.98
2022-08-28T07:17:13.677Z,62.05
2022-08-28T07:17:48.582Z,62.25
2022-08-28T07:18:23.790Z,62.25
2022-08-28T07:18:58.774Z,62.22
2022-08-28T07:19:34.181Z,62.52
2022-08-28T07:20:09.580Z,62.62
2022-08-28T07:20:44.915Z,62.42
2022-08-28T07:21:20.421Z,61.79
2022-08-28T07:21:55.907Z,60.99
2022-08-28T07:22:30.823Z,61.29
2022-08-28T07:23:06.016Z,61.09
2022-08-28T07:23:41.222Z,60.86
2022-08-28T07:24:16.520Z,61.36
2022-08-28T07:24:51.910Z,60.53
2022-08-28T07:25:27.246Z,60.83
2022-08-28T07:26:02.636Z,60.53
2022-08-28T07:26:38.039Z,60.44
2022-08-28T07:27:18.308Z,59.81
2022-08-28T07:27:48.755Z,59.70
2022-08-28T07:28:23.856Z,59.98
2022-08-28T07:29:10.080Z,59.48
2022-08-28T07:29:34.172Z,59.38
2022-08-28T07:30:09.176Z,59.18
2022-08-28T07:30:44.759Z,58.28
2022-08-28T07:31:19.867Z,58.68
2022-08-28T07:31:55.107Z,58.45
2022-08-28T07:32:30.413Z,58.15
2022-08-28T07:33:05.708Z,58.06
2022-08-28T07:33:40.822Z,58.75
2022-08-28T07:34:16.027Z,58.15